»·PEaware :: N313KP KTUS-KPHX

N313KP :: KTUS-KPHX

FLIGHT INFORMATION

Flight Status: Arrived
Operator: Privately registered:
United States
More flights under this callsign
Pilot: Erik A. (17503)
Aircraft: BEECH AIRCRAFT BONANZA
(BE35)
More flights by this aircraft type
Origin: KTUS Tucson Intl
United States
Destination: KPHX Phoenix Sky Harbor Intl
United States
More flights between these airports :: More routes between these airports
Route: +
File this flight plan on PilotEdge
Remarks: FF
Altitude:
(Current/Filed)
4,500ft
Speed:
(Current/Filed)
0kts
Departed: 31-Jul-20 12:21 PM
Arrived: 31-Jul-20 01:10 PM
Distance/Time
Traveled:
96nm/0:49
Distance/Time
To Go:
Arrived

Flight Plot

Page will automatically refresh every two minutes.

Flight plan parsing failed; only flown route is shown


Map Options




Map Legend


Flown Route
Filed Route
Departure Airport
Arrival Airport
Navaid (VOR, NDB)
Fix

Horizontal Profiles

Position Reports

Time Latitude Longitude Heading Altitude Ground
Speed
31-Jul-20 12:01 32.126712 -110.944390 318 2646ft 0kts
31-Jul-20 12:02 32.126713 -110.944391 318 2646ft 0kts
31-Jul-20 12:03 32.126714 -110.944392 318 2646ft 0kts
31-Jul-20 12:04 32.126715 -110.944393 318 2646ft 0kts
31-Jul-20 12:05 32.126716 -110.944395 318 2646ft 0kts
31-Jul-20 12:06 32.126717 -110.944396 318 2646ft 0kts
31-Jul-20 12:07 32.126718 -110.944397 318 2646ft 0kts
31-Jul-20 12:08 32.126719 -110.944398 318 2646ft 0kts
31-Jul-20 12:09 32.126721 -110.944399 318 2646ft 0kts
31-Jul-20 12:10 32.126734 -110.944413 319 2646ft 0kts
31-Jul-20 12:11 32.127191 -110.944637 27 2646ft 3kts
31-Jul-20 12:12 32.127788 -110.944202 17 2646ft 1kts
31-Jul-20 12:13 32.126741 -110.945362 224 2646ft 7kts
31-Jul-20 12:14 32.124986 -110.947428 225 2646ft 8kts
31-Jul-20 12:15 32.124224 -110.948306 213 2646ft 0kts
31-Jul-20 12:16 32.124222 -110.948308 213 2646ft 0kts
31-Jul-20 12:17 32.124215 -110.948313 213 2646ft 0kts
31-Jul-20 12:18 32.124211 -110.948317 213 2646ft 0kts
31-Jul-20 12:19 32.124208 -110.948319 213 2646ft 0kts
31-Jul-20 12:20 32.119597 -110.943448 135 2647ft 80kts
31-Jul-20 12:21 32.099217 -110.920523 130 3314ft 100kts
31-Jul-20 12:22 32.111597 -110.911424 314 4048ft 113kts
31-Jul-20 12:23 32.135128 -110.939719 320 4643ft 125kts
31-Jul-20 12:24 32.166908 -110.962804 331 4748ft 149kts
31-Jul-20 12:26 32.203546 -110.983289 335 4546ft 142kts
31-Jul-20 12:27 32.238976 -111.003028 330 4500ft 134kts
31-Jul-20 12:28 32.271121 -111.024936 332 4476ft 133kts
31-Jul-20 12:29 32.302674 -111.046830 316 4385ft 131kts
31-Jul-20 12:30 32.324387 -111.080648 297 4301ft 127kts
31-Jul-20 12:31 32.345836 -111.113145 317 4241ft 125kts
31-Jul-20 12:32 32.372274 -111.139968 312 4177ft 121kts
31-Jul-20 12:33 32.394947 -111.170121 313 4320ft 124kts
31-Jul-20 12:34 32.419976 -111.197845 318 4501ft 123kts
31-Jul-20 12:35 32.444030 -111.226829 307 4427ft 125kts
31-Jul-20 12:36 32.471059 -111.254363 317 4357ft 127kts
31-Jul-20 12:37 32.501406 -111.277056 329 4362ft 129kts
31-Jul-20 12:38 32.531554 -111.300063 321 4359ft 128kts
31-Jul-20 12:39 32.560324 -111.324992 323 4306ft 127kts
31-Jul-20 12:39 32.586092 -111.342240 331 4272ft 128kts
31-Jul-20 12:41 32.624263 -111.362638 327 4257ft 127kts
31-Jul-20 12:42 32.648190 -111.392655 294 4498ft 125kts
31-Jul-20 12:43 32.668561 -111.426728 300 4839ft 126kts
31-Jul-20 12:43 32.684731 -111.455976 293 4912ft 126kts
31-Jul-20 12:45 32.703221 -111.499512 297 4834ft 127kts
31-Jul-20 12:46 32.723586 -111.536795 299 4578ft 135kts
31-Jul-20 12:46 32.742026 -111.567217 310 4519ft 136kts
31-Jul-20 12:47 32.765205 -111.602762 301 4444ft 136kts
31-Jul-20 12:49 32.791062 -111.645096 293 4289ft 134kts
31-Jul-20 12:49 32.808820 -111.675882 299 4227ft 134kts
31-Jul-20 12:50 32.832075 -111.711109 312 4094ft 136kts
31-Jul-20 12:51 32.859287 -111.741783 307 4011ft 130kts
31-Jul-20 12:52 32.882464 -111.773371 303 4065ft 123kts
31-Jul-20 12:53 32.903739 -111.806676 292 4221ft 124kts
31-Jul-20 12:54 32.924967 -111.839492 312 4632ft 129kts
31-Jul-20 12:55 32.947344 -111.871984 295 4977ft 133kts
31-Jul-20 12:56 32.967071 -111.914760 300 4741ft 150kts
31-Jul-20 12:57 32.996131 -111.950586 344 4434ft 161kts
31-Jul-20 12:58 33.039097 -111.950565 356 4341ft 155kts
31-Jul-20 12:59 33.081322 -111.954591 356 4137ft 144kts
31-Jul-20 13:00 33.121999 -111.953251 4 4017ft 146kts
31-Jul-20 13:01 33.162635 -111.954900 352 3915ft 146kts
31-Jul-20 13:02 33.201596 -111.964810 351 3950ft 141kts
31-Jul-20 13:03 33.240595 -111.971108 352 4085ft 142kts
31-Jul-20 13:04 33.279204 -111.980760 335 4026ft 141kts
31-Jul-20 13:05 33.314940 -112.000365 337 4043ft 141kts
31-Jul-20 13:06 33.350997 -112.025462 323 3802ft 159kts
31-Jul-20 13:07 33.390195 -112.049038 349 2643ft 161kts
31-Jul-20 13:08 33.426808 -112.045949 24 1796ft 101kts
31-Jul-20 13:09 33.428593 -112.021365 218 1138ft 10kts
31-Jul-20 13:10 33.426073 -112.021165 197 1138ft 9kts
31-Jul-20 13:11 33.425528 -112.021267 174 1138ft 0kts
31-Jul-20 13:12 33.425526 -112.021266 174 1138ft 0kts
31-Jul-20 13:13 33.425524 -112.021266 174 1138ft 0kts
31-Jul-20 13:14 33.425522 -112.021266 174 1138ft 0kts
31-Jul-20 13:15 33.425520 -112.021266 174 1138ft 0kts
31-Jul-20 13:16 33.425518 -112.021265 174 1138ft 0kts
31-Jul-20 13:17 33.425516 -112.021265 174 1138ft 0kts
31-Jul-20 13:18 33.425514 -112.021265 174 1138ft 0kts
31-Jul-20 13:19 33.425512 -112.021265 174 1138ft 0kts
31-Jul-20 13:20 33.425510 -112.021265 174 1138ft 0kts
31-Jul-20 13:21 33.425508 -112.021264 174 1138ft 0kts
31-Jul-20 13:22 33.425506 -112.021264 174 1138ft 0kts
31-Jul-20 13:23 33.425504 -112.021264 174 1138ft 0kts
31-Jul-20 13:24 33.425502 -112.021264 174 1138ft 0kts

Navigation Log

Ident Type
Flight plan parsing failed, navigation log unavailable